KEAUMO HI US current weather conditions

sailwx.info

Wind from 301 at 4 knots gusting 6

Air temperature 10.6° C
Dewpoint 6.9° C

Last reported at 2014-Jul-28 11:34 UTC.
Time now 2014-Jul-28 12:24 UTC

Location: N 19°28' W 155°22'.
View on Google Maps.

See reports from other nearby stations

  
Tides and Currents Weather Stations Pressure Air Temp Water Temp Dewpoint Dewpoint Depression Visibility Wind Speed Wind Dir Waves Ship Positions
date/time (UTC)wind fromknots sea level pressurealtimeterstation pressurevisibilityair tempwater tempwave heightnotes
2014-Jul-28 11:34 301 4 gusting 6 10.6
2014-Jul-28 10:34 307 3 gusting 6 9.4
2014-Jul-28 09:34 313 3 gusting 4 10.0
2014-Jul-28 08:34 284 0 gusting 5 9.4
2014-Jul-28 07:34 315 3 gusting 4 10.6
2014-Jul-28 06:34 12.2
2014-Jul-28 05:34 12.8
2014-Jul-28 04:34 104 0 gusting 6 18.3
2014-Jul-28 03:34 096 1 gusting 9 25.6
2014-Jul-28 02:34 112 2 gusting 8 27.8
2014-Jul-28 01:34 097 4 gusting 13 26.7
2014-Jul-28 00:34 083 5 gusting 11 24.4
2014-Jul-27 23:34 078 4 gusting 10 25.0
2014-Jul-27 22:34 074 5 gusting 10 25.6
2014-Jul-27 21:34 063 5 gusting 12 25.6
2014-Jul-27 20:34 051 6 gusting 9 25.0
2014-Jul-27 19:34 039 6 gusting 13 24.4
2014-Jul-27 18:34 032 6 gusting 13 21.1
2014-Jul-27 17:34 027 3 gusting 8 20.0
2014-Jul-27 16:34 307 3 gusting 7 10.6
2014-Jul-27 15:34 305 4 gusting 6 8.9
2014-Jul-27 14:34 316 4 gusting 6 8.3
2014-Jul-27 13:34 322 4 gusting 6 8.9
2014-Jul-27 12:34 313 4 gusting 6 8.9
2014-Jul-27 11:34 302 4 gusting 6 8.9
2014-Jul-27 10:34 303 4 gusting 6 10.6
2014-Jul-27 09:34 310 4 gusting 6 10.0
2014-Jul-27 08:34 314 4 gusting 6 11.1
2014-Jul-27 07:34 334 2 gusting 6 11.1
2014-Jul-27 06:34 015 2 gusting 4 12.2
2014-Jul-27 05:34 009 2 gusting 10 12.8
2014-Jul-27 04:34 025 5 gusting 12 16.7
2014-Jul-27 03:34 039 6 gusting 10 21.7
2014-Jul-27 02:34 047 4 gusting 9 22.8
2014-Jul-27 01:34 078 4 gusting 9 21.7
2014-Jul-27 00:34 059 4 gusting 12 26.1
2014-Jul-26 23:34 081 6 gusting 9 25.0
2014-Jul-26 22:34 095 4 gusting 8 25.6
2014-Jul-26 21:34 161 1 gusting 9 22.8
2014-Jul-26 20:34 086 3 gusting 10 25.6
2014-Jul-26 19:34 037 4 gusting 10 24.4
2014-Jul-26 18:34 035 6 gusting 7 23.9
2014-Jul-26 17:34 019 4 gusting 5 21.1
2014-Jul-26 16:34 346 2 gusting 5 12.2
2014-Jul-26 15:34 333 3 gusting 6 11.1
2014-Jul-26 14:34 350 3 gusting 6 10.6
2014-Jul-26 13:34 326 3 gusting 4 8.3
2014-Jul-26 12:34 299 2 gusting 6 6.1